Anapa, Russia

7:54 PM MSK on September 30, 2014 (GMT +0400)
Vityazevo | Change Station
CLOSE
Current Station
Airport
Location: Anapa,
Elevation: 174 ft
Nearby Weather Stations

Elev 174 ft 45.00 °N, 37.35 °E | Updated 24 minutes ago

Clear
Clear
61 °F
Feels Like 61 °F
N
9
Wind Variable Wind from WSW

Today
High -- | Low -- °F
--% Chance of Precip.
Yesterday
High -- | Low -- °F
Precip. -- in
7:27 AM 7:13 PM
Waxing Crescent, 37% visible
Pressure 30.18 in
Visibility -9999.0 miles
Clouds
Dew Point 48 °F
Humidity 63%
Rainfall 0.00 in
Snow Depth Not available.
UV Not available.
Pollen Not available.
Air Quality Not available.
Flu Activity Not available.
METAR URKA 301530Z 24004MPS CAVOK 16/09 Q1022 NOSIG RMK QFE761/1015 SC070

More Conditions Fewer Conditions

Pressure 30.18 in
Visibility -9999.0 miles
Clouds
Dew Point 48 °F
Humidity 63%
Rainfall 0.00 in
Snow Depth Not available.
UV Not available.
Pollen Not available.
Air Quality Not available.
Flu Activity Not available.
METAR URKA 301530Z 24004MPS CAVOK 16/09 Q1022 NOSIG RMK QFE761/1015 SC070

More Conditions Fewer Conditions

10-Day Weather Forecast

Almanac

Astronomy

Sep. 30, 2014 Rise Set
Actual Time 7:27 AM MSK 7:13 PM MSK
Civil Twilight 6:57 AM MSK 7:42 PM MSK
Nautical Twilight 6:23 AM MSK 8:16 PM MSK
Astronomical Twilight 5:49 AM MSK 8:51 PM MSK
Moon 1:27 PM MSK 11:11 PM MSK
Length of Visible Light 12h 45m
Length of Day
11h 46m
Tomorrow will be 3m 7s shorter.
Waxing Crescent, 37% of the Moon is Illuminated
Today
Waxing Crescent
Oct 1
First Quarter
Oct 8
Full
Oct 15
Last Quarter
Oct 23
New

Today's Extremes

Country Highs Country Lows

Community

WunderPhotos

Upload Photos

1,757,671 photos uploaded!

Nearby

Snow Depth

Not available.

Earthquake Activity

City Distance Mag. Time & Date
No recent earthquake activity has been reported nearby.
Minimum magnitude displayed is 2.5.

Coastal Water Temperatures

Place Temperature
No Stations Reporting

Nearby Weather Stations